sensor_id;sensor_type;location;lat;lon;timestamp;temperature;humidity
31046;DHT22;17711;54.018;9.300;2023-05-10T00:00:52;15.70;99.90
31046;DHT22;17711;54.018;9.300;2023-05-10T00:03:20;15.60;99.90
31046;DHT22;17711;54.018;9.300;2023-05-10T00:05:49;15.50;99.90
31046;DHT22;17711;54.018;9.300;2023-05-10T00:08:17;15.60;99.90
31046;DHT22;17711;54.018;9.300;2023-05-10T00:10:46;15.50;99.90
31046;DHT22;17711;54.018;9.300;2023-05-10T00:13:14;15.50;99.90
31046;DHT22;17711;54.018;9.300;2023-05-10T00:15:44;15.50;99.90
31046;DHT22;17711;54.018;9.300;2023-05-10T00:18:13;15.50;99.90
31046;DHT22;17711;54.018;9.300;2023-05-10T00:20:42;15.40;99.90
31046;DHT22;17711;54.018;9.300;2023-05-10T00:23:12;15.40;99.90
31046;DHT22;17711;54.018;9.300;2023-05-10T00:25:41;15.30;99.90
31046;DHT22;17711;54.018;9.300;2023-05-10T00:28:09;15.20;99.90
31046;DHT22;17711;54.018;9.300;2023-05-10T00:30:37;15.10;99.90
31046;DHT22;17711;54.018;9.300;2023-05-10T00:33:07;14.90;99.90
31046;DHT22;17711;54.018;9.300;2023-05-10T00:35:36;14.80;99.90
31046;DHT22;17711;54.018;9.300;2023-05-10T00:38:05;14.80;99.90
31046;DHT22;17711;54.018;9.300;2023-05-10T00:40:35;14.60;99.90
31046;DHT22;17711;54.018;9.300;2023-05-10T00:43:04;14.50;99.90
31046;DHT22;17711;54.018;9.300;2023-05-10T00:45:33;14.40;99.90
31046;DHT22;17711;54.018;9.300;2023-05-10T00:48:04;14.20;99.90
31046;DHT22;17711;54.018;9.300;2023-05-10T00:50:35;14.20;99.90
31046;DHT22;17711;54.018;9.300;2023-05-10T00:53:03;14.10;99.90
31046;DHT22;17711;54.018;9.300;2023-05-10T00:55:32;14.00;99.90
31046;DHT22;17711;54.018;9.300;2023-05-10T00:58:00;14.00;99.90
31046;DHT22;17711;54.018;9.300;2023-05-10T01:00:29;13.80;99.90
31046;DHT22;17711;54.018;9.300;2023-05-10T01:02:58;13.80;99.90
31046;DHT22;17711;54.018;9.300;2023-05-10T01:05:27;13.70;99.90
31046;DHT22;17711;54.018;9.300;2023-05-10T01:07:57;13.70;99.90
31046;DHT22;17711;54.018;9.300;2023-05-10T01:10:26;13.60;99.90
31046;DHT22;17711;54.018;9.300;2023-05-10T01:12:55;13.50;99.90
31046;DHT22;17711;54.018;9.300;2023-05-10T01:15:24;13.50;99.90
31046;DHT22;17711;54.018;9.300;2023-05-10T01:17:52;13.50;99.90
31046;DHT22;17711;54.018;9.300;2023-05-10T01:20:22;13.40;99.90
31046;DHT22;17711;54.018;9.300;2023-05-10T01:23:10;13.30;99.90
31046;DHT22;17711;54.018;9.300;2023-05-10T01:26:25;13.30;99.90
31046;DHT22;17711;54.018;9.300;2023-05-10T01:29:19;13.20;99.90
31046;DHT22;17711;54.018;9.300;2023-05-10T01:32:14;13.10;99.90
31046;DHT22;17711;54.018;9.300;2023-05-10T01:34:50;13.00;99.90
31046;DHT22;17711;54.018;9.300;2023-05-10T01:37:26;13.00;99.90
31046;DHT22;17711;54.018;9.300;2023-05-10T01:40:01;13.00;99.90
31046;DHT22;17711;54.018;9.300;2023-05-10T01:42:36;13.00;99.90
31046;DHT22;17711;54.018;9.300;2023-05-10T01:45:16;13.00;99.90
31046;DHT22;17711;54.018;9.300;2023-05-10T01:47:53;13.00;99.90
31046;DHT22;17711;54.018;9.300;2023-05-10T01:50:29;12.90;99.90
31046;DHT22;17711;54.018;9.300;2023-05-10T01:53:00;13.00;99.90
31046;DHT22;17711;54.018;9.300;2023-05-10T01:55:33;12.90;99.90
31046;DHT22;17711;54.018;9.300;2023-05-10T01:58:04;12.90;99.90
31046;DHT22;17711;54.018;9.300;2023-05-10T02:00:34;12.80;99.90
31046;DHT22;17711;54.018;9.300;2023-05-10T02:03:07;12.80;99.90
31046;DHT22;17711;54.018;9.300;2023-05-10T02:05:37;12.80;99.90
31046;DHT22;17711;54.018;9.300;2023-05-10T02:08:08;12.80;99.90
31046;DHT22;17711;54.018;9.300;2023-05-10T02:10:39;12.80;99.90
31046;DHT22;17711;54.018;9.300;2023-05-10T02:13:09;12.70;99.90
31046;DHT22;17711;54.018;9.300;2023-05-10T02:15:39;12.70;99.90
31046;DHT22;17711;54.018;9.300;2023-05-10T02:18:11;12.70;99.90
31046;DHT22;17711;54.018;9.300;2023-05-10T02:20:40;12.70;99.90
31046;DHT22;17711;54.018;9.300;2023-05-10T02:23:09;12.80;99.90
31046;DHT22;17711;54.018;9.300;2023-05-10T02:25:38;12.80;99.90
31046;DHT22;17711;54.018;9.300;2023-05-10T02:28:08;12.80;99.90
31046;DHT22;17711;54.018;9.300;2023-05-10T02:30:39;12.80;99.90
31046;DHT22;17711;54.018;9.300;2023-05-10T02:33:10;12.60;99.90
31046;DHT22;17711;54.018;9.300;2023-05-10T02:35:39;12.60;99.90
31046;DHT22;17711;54.018;9.300;2023-05-10T02:38:09;12.70;99.90
31046;DHT22;17711;54.018;9.300;2023-05-10T02:40:41;12.50;99.90
31046;DHT22;17711;54.018;9.300;2023-05-10T02:43:11;12.50;99.90
31046;DHT22;17711;54.018;9.300;2023-05-10T02:45:41;12.50;99.90
31046;DHT22;17711;54.018;9.300;2023-05-10T02:48:11;12.60;99.90
31046;DHT22;17711;54.018;9.300;2023-05-10T02:50:43;12.50;99.90
31046;DHT22;17711;54.018;9.300;2023-05-10T02:53:15;12.50;99.90
31046;DHT22;17711;54.018;9.300;2023-05-10T02:55:45;12.50;99.90
31046;DHT22;17711;54.018;9.300;2023-05-10T02:58:17;12.50;99.90
31046;DHT22;17711;54.018;9.300;2023-05-10T03:00:46;12.50;99.90
31046;DHT22;17711;54.018;9.300;2023-05-10T03:03:16;12.50;99.90
31046;DHT22;17711;54.018;9.300;2023-05-10T03:05:45;12.50;99.90
31046;DHT22;17711;54.018;9.300;2023-05-10T03:08:13;12.40;99.90
31046;DHT22;17711;54.018;9.300;2023-05-10T03:10:47;12.40;99.90
31046;DHT22;17711;54.018;9.300;2023-05-10T03:13:27;12.40;99.90
31046;DHT22;17711;54.018;9.300;2023-05-10T03:16:01;12.30;99.90
31046;DHT22;17711;54.018;9.300;2023-05-10T03:18:37;12.30;99.90
31046;DHT22;17711;54.018;9.300;2023-05-10T03:21:08;12.30;99.90
31046;DHT22;17711;54.018;9.300;2023-05-10T03:23:43;12.20;99.90
31046;DHT22;17711;54.018;9.300;2023-05-10T03:26:18;12.20;99.90
31046;DHT22;17711;54.018;9.300;2023-05-10T03:28:49;12.30;99.90
31046;DHT22;17711;54.018;9.300;2023-05-10T03:31:18;12.30;99.90
31046;DHT22;17711;54.018;9.300;2023-05-10T03:33:49;12.20;99.90
31046;DHT22;17711;54.018;9.300;2023-05-10T03:36:18;12.20;99.90
31046;DHT22;17711;54.018;9.300;2023-05-10T03:38:47;12.20;99.90
31046;DHT22;17711;54.018;9.300;2023-05-10T03:41:15;12.20;99.90
31046;DHT22;17711;54.018;9.300;2023-05-10T03:43:44;12.20;99.90
31046;DHT22;17711;54.018;9.300;2023-05-10T03:46:12;12.20;99.90
31046;DHT22;17711;54.018;9.300;2023-05-10T03:48:41;12.10;99.90
31046;DHT22;17711;54.018;9.300;2023-05-10T03:51:11;12.10;99.90
31046;DHT22;17711;54.018;9.300;2023-05-10T03:53:40;12.20;99.90
31046;DHT22;17711;54.018;9.300;2023-05-10T03:56:08;12.20;99.90
31046;DHT22;17711;54.018;9.300;2023-05-10T03:58:37;12.20;99.90
31046;DHT22;17711;54.018;9.300;2023-05-10T04:01:06;12.20;99.90
31046;DHT22;17711;54.018;9.300;2023-05-10T04:03:34;12.20;99.90
31046;DHT22;17711;54.018;9.300;2023-05-10T04:06:04;12.20;99.90
31046;DHT22;17711;54.018;9.300;2023-05-10T04:08:34;12.10;99.90
31046;DHT22;17711;54.018;9.300;2023-05-10T04:11:06;12.10;99.90
31046;DHT22;17711;54.018;9.300;2023-05-10T04:13:35;12.20;99.90
31046;DHT22;17711;54.018;9.300;2023-05-10T04:16:04;12.30;99.90
31046;DHT22;17711;54.018;9.300;2023-05-10T04:18:33;12.40;99.90
31046;DHT22;17711;54.018;9.300;2023-05-10T04:21:02;12.50;99.90
31046;DHT22;17711;54.018;9.300;2023-05-10T04:23:30;12.50;99.90
31046;DHT22;17711;54.018;9.300;2023-05-10T04:26:01;12.60;99.90
31046;DHT22;17711;54.018;9.300;2023-05-10T04:28:29;12.70;99.90
31046;DHT22;17711;54.018;9.300;2023-05-10T04:31:02;12.70;99.90
31046;DHT22;17711;54.018;9.300;2023-05-10T04:33:31;12.70;99.90
31046;DHT22;17711;54.018;9.300;2023-05-10T04:36:00;12.80;99.90
31046;DHT22;17711;54.018;9.300;2023-05-10T04:38:29;12.80;99.90
31046;DHT22;17711;54.018;9.300;2023-05-10T04:41:05;12.80;99.90
31046;DHT22;17711;54.018;9.300;2023-05-10T04:43:34;13.00;99.90
31046;DHT22;17711;54.018;9.300;2023-05-10T04:46:03;13.10;99.90
31046;DHT22;17711;54.018;9.300;2023-05-10T04:48:32;13.30;99.90
31046;DHT22;17711;54.018;9.300;2023-05-10T04:51:00;13.40;99.90
31046;DHT22;17711;54.018;9.300;2023-05-10T04:53:31;13.50;99.90
31046;DHT22;17711;54.018;9.300;2023-05-10T04:55:59;13.60;99.90
31046;DHT22;17711;54.018;9.300;2023-05-10T04:58:29;13.70;99.90
31046;DHT22;17711;54.018;9.300;2023-05-10T05:01:05;13.80;99.90
31046;DHT22;17711;54.018;9.300;2023-05-10T05:03:34;13.90;99.90
31046;DHT22;17711;54.018;9.300;2023-05-10T05:06:03;14.00;99.90
31046;DHT22;17711;54.018;9.300;2023-05-10T05:08:32;14.20;99.90
31046;DHT22;17711;54.018;9.300;2023-05-10T05:11:00;14.30;99.90
31046;DHT22;17711;54.018;9.300;2023-05-10T05:13:30;14.40;99.90
31046;DHT22;17711;54.018;9.300;2023-05-10T05:16:00;14.60;99.90
31046;DHT22;17711;54.018;9.300;2023-05-10T05:18:29;14.70;99.90
31046;DHT22;17711;54.018;9.300;2023-05-10T05:20:58;14.80;99.90
31046;DHT22;17711;54.018;9.300;2023-05-10T05:23:27;14.90;99.90
31046;DHT22;17711;54.018;9.300;2023-05-10T05:25:55;15.00;99.90
31046;DHT22;17711;54.018;9.300;2023-05-10T05:28:24;15.10;99.90
31046;DHT22;17711;54.018;9.300;2023-05-10T05:30:54;15.10;99.90
31046;DHT22;17711;54.018;9.300;2023-05-10T05:33:22;15.20;99.90
31046;DHT22;17711;54.018;9.300;2023-05-10T05:35:51;15.40;99.90
31046;DHT22;17711;54.018;9.300;2023-05-10T05:38:19;15.40;99.90
31046;DHT22;17711;54.018;9.300;2023-05-10T05:40:48;15.60;99.90
31046;DHT22;17711;54.018;9.300;2023-05-10T05:43:16;15.70;99.90
31046;DHT22;17711;54.018;9.300;2023-05-10T05:45:45;15.80;99.90
31046;DHT22;17711;54.018;9.300;2023-05-10T05:48:15;16.00;99.90
31046;DHT22;17711;54.018;9.300;2023-05-10T05:50:43;16.10;99.90
31046;DHT22;17711;54.018;9.300;2023-05-10T05:53:12;16.20;99.90
31046;DHT22;17711;54.018;9.300;2023-05-10T05:55:45;16.30;99.90
31046;DHT22;17711;54.018;9.300;2023-05-10T05:58:18;16.40;99.90
31046;DHT22;17711;54.018;9.300;2023-05-10T06:00:47;16.40;99.90
31046;DHT22;17711;54.018;9.300;2023-05-10T06:03:17;16.50;99.90
31046;DHT22;17711;54.018;9.300;2023-05-10T06:05:46;16.50;99.90
31046;DHT22;17711;54.018;9.300;2023-05-10T06:08:15;16.60;99.90
31046;DHT22;17711;54.018;9.300;2023-05-10T06:10:43;16.60;99.90
31046;DHT22;17711;54.018;9.300;2023-05-10T06:13:12;16.60;99.90
31046;DHT22;17711;54.018;9.300;2023-05-10T06:15:41;16.60;99.90
31046;DHT22;17711;54.018;9.300;2023-05-10T06:18:09;16.70;99.90
31046;DHT22;17711;54.018;9.300;2023-05-10T06:20:41;16.80;99.90
31046;DHT22;17711;54.018;9.300;2023-05-10T06:23:10;16.80;99.90
31046;DHT22;17711;54.018;9.300;2023-05-10T06:25:39;16.90;99.90
31046;DHT22;17711;54.018;9.300;2023-05-10T06:28:07;16.90;99.90
31046;DHT22;17711;54.018;9.300;2023-05-10T06:30:36;16.90;99.90
31046;DHT22;17711;54.018;9.300;2023-05-10T06:33:05;16.80;99.90
31046;DHT22;17711;54.018;9.300;2023-05-10T06:35:33;16.80;99.90
31046;DHT22;17711;54.018;9.300;2023-05-10T06:38:03;16.80;99.90
31046;DHT22;17711;54.018;9.300;2023-05-10T06:40:32;16.80;99.90
31046;DHT22;17711;54.018;9.300;2023-05-10T06:43:01;16.80;99.90
31046;DHT22;17711;54.018;9.300;2023-05-10T06:45:29;16.80;99.90
31046;DHT22;17711;54.018;9.300;2023-05-10T06:47:58;16.80;99.90
31046;DHT22;17711;54.018;9.300;2023-05-10T06:50:26;16.80;99.90
31046;DHT22;17711;54.018;9.300;2023-05-10T06:52:55;16.80;99.90
31046;DHT22;17711;54.018;9.300;2023-05-10T06:55:25;16.80;99.90
31046;DHT22;17711;54.018;9.300;2023-05-10T06:57:53;16.80;99.90
31046;DHT22;17711;54.018;9.300;2023-05-10T07:00:22;16.80;99.90
31046;DHT22;17711;54.018;9.300;2023-05-10T07:02:51;16.70;99.90
31046;DHT22;17711;54.018;9.300;2023-05-10T07:05:19;16.60;99.90
31046;DHT22;17711;54.018;9.300;2023-05-10T07:07:48;16.70;99.90
31046;DHT22;17711;54.018;9.300;2023-05-10T07:10:17;16.70;99.90
31046;DHT22;17711;54.018;9.300;2023-05-10T07:12:47;16.70;99.90
31046;DHT22;17711;54.018;9.300;2023-05-10T07:15:15;16.70;99.90
31046;DHT22;17711;54.018;9.300;2023-05-10T07:17:45;16.80;99.90
31046;DHT22;17711;54.018;9.300;2023-05-10T07:20:13;16.80;99.90
31046;DHT22;17711;54.018;9.300;2023-05-10T07:22:42;16.80;99.90
31046;DHT22;17711;54.018;9.300;2023-05-10T07:25:10;16.80;99.90
31046;DHT22;17711;54.018;9.300;2023-05-10T07:27:39;16.90;99.90
31046;DHT22;17711;54.018;9.300;2023-05-10T07:30:10;16.90;99.90
31046;DHT22;17711;54.018;9.300;2023-05-10T07:32:41;16.90;99.90
31046;DHT22;17711;54.018;9.300;2023-05-10T07:35:09;17.00;99.90
31046;DHT22;17711;54.018;9.300;2023-05-10T07:37:38;17.00;99.90
31046;DHT22;17711;54.018;9.300;2023-05-10T07:40:08;17.00;99.90
31046;DHT22;17711;54.018;9.300;2023-05-10T07:42:36;17.00;99.90
31046;DHT22;17711;54.018;9.300;2023-05-10T07:45:06;17.00;99.90
31046;DHT22;17711;54.018;9.300;2023-05-10T07:47:36;17.00;99.90
31046;DHT22;17711;54.018;9.300;2023-05-10T07:50:06;17.10;99.90
31046;DHT22;17711;54.018;9.300;2023-05-10T07:52:35;17.10;99.90
31046;DHT22;17711;54.018;9.300;2023-05-10T07:55:05;17.10;99.90
31046;DHT22;17711;54.018;9.300;2023-05-10T07:57:34;17.10;99.90
31046;DHT22;17711;54.018;9.300;2023-05-10T08:00:03;17.10;99.90
31046;DHT22;17711;54.018;9.300;2023-05-10T08:02:34;17.20;99.90
31046;DHT22;17711;54.018;9.300;2023-05-10T08:05:05;17.30;99.90
31046;DHT22;17711;54.018;9.300;2023-05-10T08:07:34;17.40;99.90
31046;DHT22;17711;54.018;9.300;2023-05-10T08:10:02;17.40;99.90
31046;DHT22;17711;54.018;9.300;2023-05-10T08:12:31;17.40;99.90
31046;DHT22;17711;54.018;9.300;2023-05-10T08:14:59;17.40;99.90
31046;DHT22;17711;54.018;9.300;2023-05-10T08:17:28;17.40;99.90
31046;DHT22;17711;54.018;9.300;2023-05-10T08:19:57;17.50;99.90
31046;DHT22;17711;54.018;9.300;2023-05-10T08:22:27;17.40;99.90
31046;DHT22;17711;54.018;9.300;2023-05-10T08:24:55;17.50;99.90
31046;DHT22;17711;54.018;9.300;2023-05-10T08:27:24;17.60;99.90
31046;DHT22;17711;54.018;9.300;2023-05-10T08:29:52;17.60;99.90
31046;DHT22;17711;54.018;9.300;2023-05-10T08:32:21;17.50;99.90
31046;DHT22;17711;54.018;9.300;2023-05-10T08:34:49;17.50;99.90
31046;DHT22;17711;54.018;9.300;2023-05-10T08:37:18;17.60;99.90
31046;DHT22;17711;54.018;9.300;2023-05-10T08:39:48;17.60;99.90
31046;DHT22;17711;54.018;9.300;2023-05-10T08:42:19;17.60;99.90
31046;DHT22;17711;54.018;9.300;2023-05-10T08:44:51;17.80;99.90
31046;DHT22;17711;54.018;9.300;2023-05-10T08:47:20;17.80;99.90
31046;DHT22;17711;54.018;9.300;2023-05-10T08:49:49;17.80;99.90
31046;DHT22;17711;54.018;9.300;2023-05-10T08:52:18;17.90;99.90
31046;DHT22;17711;54.018;9.300;2023-05-10T08:54:49;17.80;99.90
31046;DHT22;17711;54.018;9.300;2023-05-10T08:57:19;17.80;99.90
31046;DHT22;17711;54.018;9.300;2023-05-10T08:59:48;17.80;99.90
31046;DHT22;17711;54.018;9.300;2023-05-10T09:02:17;17.90;99.90
31046;DHT22;17711;54.018;9.300;2023-05-10T09:04:46;18.00;99.90
31046;DHT22;17711;54.018;9.300;2023-05-10T09:07:16;17.90;99.90
31046;DHT22;17711;54.018;9.300;2023-05-10T09:09:46;17.90;99.90
31046;DHT22;17711;54.018;9.300;2023-05-10T09:12:16;17.90;99.90
31046;DHT22;17711;54.018;9.300;2023-05-10T09:14:44;17.80;99.90
31046;DHT22;17711;54.018;9.300;2023-05-10T09:17:13;17.80;99.90
31046;DHT22;17711;54.018;9.300;2023-05-10T09:19:42;17.60;99.90
31046;DHT22;17711;54.018;9.300;2023-05-10T09:22:11;17.50;99.90
31046;DHT22;17711;54.018;9.300;2023-05-10T09:24:40;17.40;99.90
31046;DHT22;17711;54.018;9.300;2023-05-10T09:27:13;17.40;99.90
31046;DHT22;17711;54.018;9.300;2023-05-10T09:29:43;17.40;99.90
31046;DHT22;17711;54.018;9.300;2023-05-10T09:32:12;17.30;99.90
31046;DHT22;17711;54.018;9.300;2023-05-10T09:34:41;17.10;99.90
31046;DHT22;17711;54.018;9.300;2023-05-10T09:37:09;17.00;99.90
31046;DHT22;17711;54.018;9.300;2023-05-10T09:39:38;16.90;99.90
31046;DHT22;17711;54.018;9.300;2023-05-10T09:42:09;16.90;99.90
31046;DHT22;17711;54.018;9.300;2023-05-10T09:44:38;16.80;99.90
31046;DHT22;17711;54.018;9.300;2023-05-10T09:47:09;16.80;99.90
31046;DHT22;17711;54.018;9.300;2023-05-10T09:49:37;16.60;99.90
31046;DHT22;17711;54.018;9.300;2023-05-10T09:52:07;16.60;99.90
31046;DHT22;17711;54.018;9.300;2023-05-10T09:54:35;16.70;99.90
31046;DHT22;17711;54.018;9.300;2023-05-10T09:57:04;16.70;99.90
31046;DHT22;17711;54.018;9.300;2023-05-10T09:59:33;16.70;99.90
31046;DHT22;17711;54.018;9.300;2023-05-10T10:02:02;16.70;99.90
31046;DHT22;17711;54.018;9.300;2023-05-10T10:04:39;16.80;99.90
31046;DHT22;17711;54.018;9.300;2023-05-10T10:07:09;16.90;99.90
31046;DHT22;17711;54.018;9.300;2023-05-10T10:09:38;16.90;99.90
31046;DHT22;17711;54.018;9.300;2023-05-10T10:12:08;17.10;99.90
31046;DHT22;17711;54.018;9.300;2023-05-10T10:14:36;17.20;99.90
31046;DHT22;17711;54.018;9.300;2023-05-10T10:17:05;17.20;99.90
31046;DHT22;17711;54.018;9.300;2023-05-10T10:19:36;17.10;99.90
31046;DHT22;17711;54.018;9.300;2023-05-10T10:22:05;17.10;99.90
31046;DHT22;17711;54.018;9.300;2023-05-10T10:24:34;17.10;99.90
31046;DHT22;17711;54.018;9.300;2023-05-10T10:27:10;17.20;99.90
31046;DHT22;17711;54.018;9.300;2023-05-10T10:29:47;17.00;99.90
31046;DHT22;17711;54.018;9.300;2023-05-10T10:32:22;17.00;99.90
31046;DHT22;17711;54.018;9.300;2023-05-10T10:34:54;16.90;99.90
31046;DHT22;17711;54.018;9.300;2023-05-10T10:37:24;16.90;99.90
31046;DHT22;17711;54.018;9.300;2023-05-10T10:40:28;16.70;99.90
31046;DHT22;17711;54.018;9.300;2023-05-10T10:43:22;16.70;99.90
31046;DHT22;17711;54.018;9.300;2023-05-10T10:46:10;16.60;99.90
31046;DHT22;17711;54.018;9.300;2023-05-10T10:48:40;16.40;99.90
31046;DHT22;17711;54.018;9.300;2023-05-10T10:51:10;16.50;99.90
31046;DHT22;17711;54.018;9.300;2023-05-10T10:53:41;16.40;99.90
31046;DHT22;17711;54.018;9.300;2023-05-10T10:56:12;16.40;99.90
31046;DHT22;17711;54.018;9.300;2023-05-10T10:58:49;16.40;99.90
31046;DHT22;17711;54.018;9.300;2023-05-10T11:01:19;16.50;99.90
31046;DHT22;17711;54.018;9.300;2023-05-10T11:04:21;16.50;99.90
31046;DHT22;17711;54.018;9.300;2023-05-10T11:06:51;16.40;99.90
31046;DHT22;17711;54.018;9.300;2023-05-10T11:09:40;16.40;99.90
31046;DHT22;17711;54.018;9.300;2023-05-10T11:12:09;16.40;99.90
31046;DHT22;17711;54.018;9.300;2023-05-10T11:14:37;16.50;99.90
31046;DHT22;17711;54.018;9.300;2023-05-10T11:17:24;16.60;99.90
31046;DHT22;17711;54.018;9.300;2023-05-10T11:20:13;16.50;99.90
31046;DHT22;17711;54.018;9.300;2023-05-10T11:22:53;16.60;99.90
31046;DHT22;17711;54.018;9.300;2023-05-10T11:25:26;16.50;99.90
31046;DHT22;17711;54.018;9.300;2023-05-10T11:27:55;16.30;99.90
31046;DHT22;17711;54.018;9.300;2023-05-10T11:30:24;16.00;99.90
31046;DHT22;17711;54.018;9.300;2023-05-10T11:32:53;15.90;99.90
31046;DHT22;17711;54.018;9.300;2023-05-10T11:35:22;15.70;99.90
31046;DHT22;17711;54.018;9.300;2023-05-10T11:37:52;15.60;99.90
31046;DHT22;17711;54.018;9.300;2023-05-10T11:40:21;15.50;99.90
31046;DHT22;17711;54.018;9.300;2023-05-10T11:42:51;15.60;99.90
31046;DHT22;17711;54.018;9.300;2023-05-10T11:45:20;15.60;99.90
31046;DHT22;17711;54.018;9.300;2023-05-10T11:47:49;15.60;99.90
31046;DHT22;17711;54.018;9.300;2023-05-10T11:50:18;15.70;99.90
31046;DHT22;17711;54.018;9.300;2023-05-10T11:52:52;15.80;99.90
31046;DHT22;17711;54.018;9.300;2023-05-10T11:55:21;16.00;99.90
31046;DHT22;17711;54.018;9.300;2023-05-10T11:57:52;16.00;99.90
31046;DHT22;17711;54.018;9.300;2023-05-10T12:00:21;16.10;99.90
31046;DHT22;17711;54.018;9.300;2023-05-10T12:02:50;16.10;99.90
31046;DHT22;17711;54.018;9.300;2023-05-10T12:05:19;16.00;99.90
31046;DHT22;17711;54.018;9.300;2023-05-10T12:07:47;16.00;99.90
31046;DHT22;17711;54.018;9.300;2023-05-10T12:10:25;16.10;99.90
31046;DHT22;17711;54.018;9.300;2023-05-10T12:12:54;16.00;99.90
31046;DHT22;17711;54.018;9.300;2023-05-10T12:15:24;15.90;99.90
31046;DHT22;17711;54.018;9.300;2023-05-10T12:17:54;16.00;99.90
31046;DHT22;17711;54.018;9.300;2023-05-10T12:20:27;16.00;99.90
31046;DHT22;17711;54.018;9.300;2023-05-10T12:22:57;16.10;99.90
31046;DHT22;17711;54.018;9.300;2023-05-10T12:25:32;16.00;99.90
31046;DHT22;17711;54.018;9.300;2023-05-10T12:28:03;15.90;99.90
31046;DHT22;17711;54.018;9.300;2023-05-10T12:30:33;15.90;99.90
31046;DHT22;17711;54.018;9.300;2023-05-10T12:33:07;16.00;99.90
31046;DHT22;17711;54.018;9.300;2023-05-10T12:35:44;16.10;99.90
31046;DHT22;17711;54.018;9.300;2023-05-10T12:38:25;16.10;99.90
31046;DHT22;17711;54.018;9.300;2023-05-10T12:40:58;16.10;99.90
31046;DHT22;17711;54.018;9.300;2023-05-10T12:43:27;16.20;99.90
31046;DHT22;17711;54.018;9.300;2023-05-10T12:45:56;16.20;99.90
31046;DHT22;17711;54.018;9.300;2023-05-10T12:48:25;16.30;99.90
31046;DHT22;17711;54.018;9.300;2023-05-10T12:50:55;16.30;99.90
31046;DHT22;17711;54.018;9.300;2023-05-10T12:53:24;16.40;99.90
31046;DHT22;17711;54.018;9.300;2023-05-10T12:55:52;16.50;99.90
31046;DHT22;17711;54.018;9.300;2023-05-10T12:58:22;16.40;99.90
31046;DHT22;17711;54.018;9.300;2023-05-10T13:01:01;16.40;99.90
31046;DHT22;17711;54.018;9.300;2023-05-10T13:03:31;16.50;99.90
31046;DHT22;17711;54.018;9.300;2023-05-10T13:06:00;16.70;99.90
31046;DHT22;17711;54.018;9.300;2023-05-10T13:08:28;16.70;99.90
31046;DHT22;17711;54.018;9.300;2023-05-10T13:11:00;16.90;99.90
31046;DHT22;17711;54.018;9.300;2023-05-10T13:13:30;17.00;99.90
31046;DHT22;17711;54.018;9.300;2023-05-10T13:15:59;17.00;99.90
31046;DHT22;17711;54.018;9.300;2023-05-10T13:18:27;17.00;99.90
31046;DHT22;17711;54.018;9.300;2023-05-10T13:20:56;17.00;99.90
31046;DHT22;17711;54.018;9.300;2023-05-10T13:23:24;16.90;99.90
31046;DHT22;17711;54.018;9.300;2023-05-10T13:25:53;16.90;99.90
31046;DHT22;17711;54.018;9.300;2023-05-10T13:28:21;17.00;99.90
31046;DHT22;17711;54.018;9.300;2023-05-10T13:30:51;16.90;99.90
31046;DHT22;17711;54.018;9.300;2023-05-10T13:33:20;17.10;99.90
31046;DHT22;17711;54.018;9.300;2023-05-10T13:35:48;17.50;99.90
31046;DHT22;17711;54.018;9.300;2023-05-10T13:38:19;17.60;99.90
31046;DHT22;17711;54.018;9.300;2023-05-10T13:40:48;17.70;99.90
31046;DHT22;17711;54.018;9.300;2023-05-10T13:43:19;17.80;99.90
31046;DHT22;17711;54.018;9.300;2023-05-10T13:45:48;17.70;99.90
31046;DHT22;17711;54.018;9.300;2023-05-10T13:48:18;17.90;99.90
31046;DHT22;17711;54.018;9.300;2023-05-10T13:50:46;18.20;99.90
31046;DHT22;17711;54.018;9.300;2023-05-10T13:53:15;18.60;99.90
31046;DHT22;17711;54.018;9.300;2023-05-10T13:55:43;18.80;99.90
31046;DHT22;17711;54.018;9.300;2023-05-10T13:58:12;18.60;99.90
31046;DHT22;17711;54.018;9.300;2023-05-10T14:00:41;18.30;99.90
31046;DHT22;17711;54.018;9.300;2023-05-10T14:03:09;18.10;99.90
31046;DHT22;17711;54.018;9.300;2023-05-10T14:05:40;17.90;99.90
31046;DHT22;17711;54.018;9.300;2023-05-10T14:08:08;17.70;99.90
31046;DHT22;17711;54.018;9.300;2023-05-10T14:10:37;17.50;99.90
31046;DHT22;17711;54.018;9.300;2023-05-10T14:13:06;17.40;99.90
31046;DHT22;17711;54.018;9.300;2023-05-10T14:15:35;17.20;99.90
31046;DHT22;17711;54.018;9.300;2023-05-10T14:18:04;17.00;99.90
31046;DHT22;17711;54.018;9.300;2023-05-10T14:20:32;16.90;99.90
31046;DHT22;17711;54.018;9.300;2023-05-10T14:23:02;16.90;99.90
31046;DHT22;17711;54.018;9.300;2023-05-10T14:25:31;16.90;99.90
31046;DHT22;17711;54.018;9.300;2023-05-10T14:28:00;16.90;99.90
31046;DHT22;17711;54.018;9.300;2023-05-10T14:30:28;16.90;99.90
31046;DHT22;17711;54.018;9.300;2023-05-10T14:32:57;17.00;99.90
31046;DHT22;17711;54.018;9.300;2023-05-10T14:35:28;17.00;99.90
31046;DHT22;17711;54.018;9.300;2023-05-10T14:37:58;17.00;99.90
31046;DHT22;17711;54.018;9.300;2023-05-10T14:40:28;17.00;99.90
31046;DHT22;17711;54.018;9.300;2023-05-10T14:42:56;17.00;99.90
31046;DHT22;17711;54.018;9.300;2023-05-10T14:45:25;17.00;99.90
31046;DHT22;17711;54.018;9.300;2023-05-10T14:47:54;17.10;99.90
31046;DHT22;17711;54.018;9.300;2023-05-10T14:50:23;17.10;99.90
31046;DHT22;17711;54.018;9.300;2023-05-10T14:52:59;17.00;99.90
31046;DHT22;17711;54.018;9.300;2023-05-10T14:55:28;16.90;99.90
31046;DHT22;17711;54.018;9.300;2023-05-10T14:57:57;16.90;99.90
31046;DHT22;17711;54.018;9.300;2023-05-10T15:00:28;17.00;99.90
31046;DHT22;17711;54.018;9.300;2023-05-10T15:02:57;17.10;99.90
31046;DHT22;17711;54.018;9.300;2023-05-10T15:05:26;17.10;99.90
31046;DHT22;17711;54.018;9.300;2023-05-10T15:07:55;17.20;99.90
31046;DHT22;17711;54.018;9.300;2023-05-10T15:10:24;17.10;99.90
31046;DHT22;17711;54.018;9.300;2023-05-10T15:12:54;17.00;99.90
31046;DHT22;17711;54.018;9.300;2023-05-10T15:15:23;16.80;99.90
31046;DHT22;17711;54.018;9.300;2023-05-10T15:17:52;16.60;99.90
31046;DHT22;17711;54.018;9.300;2023-05-10T15:20:20;16.50;99.90
31046;DHT22;17711;54.018;9.300;2023-05-10T15:22:49;16.50;99.90
31046;DHT22;17711;54.018;9.300;2023-05-10T15:25:17;16.40;99.90
31046;DHT22;17711;54.018;9.300;2023-05-10T15:27:46;16.40;99.90
31046;DHT22;17711;54.018;9.300;2023-05-10T15:30:16;16.40;99.90
31046;DHT22;17711;54.018;9.300;2023-05-10T15:32:45;16.30;99.90
31046;DHT22;17711;54.018;9.300;2023-05-10T15:35:14;16.20;99.90
31046;DHT22;17711;54.018;9.300;2023-05-10T15:37:44;16.20;99.90
31046;DHT22;17711;54.018;9.300;2023-05-10T15:40:15;16.10;99.90
31046;DHT22;17711;54.018;9.300;2023-05-10T15:42:44;16.00;99.90
31046;DHT22;17711;54.018;9.300;2023-05-10T15:45:13;15.90;99.90
31046;DHT22;17711;54.018;9.300;2023-05-10T15:47:44;15.90;99.90
31046;DHT22;17711;54.018;9.300;2023-05-10T15:50:14;15.90;99.90